Finest — WCW8374 — position and weather

sailwx.info

Track history (hours):
 
Tides and Currents Weather Stations Pressure Air Temp Water Temp Dewpoint Dewpoint Depression Visibility Wind Speed Wind Dir Waves Ship Positions

Finest

Owner: NEW YORK FAST FERRY SERVICES INC, MAMARONECK, NY. More information available from US FCC via Universal Licensing System and Coast Guard Vessel Documentation Center.

Last reported at 2015-Aug-03 22:33 UTC. Time now 2015-Aug-04 09:40 UTC.
Position N 40°38' W 074°03'.

Length 38 m.

Type: High speed craft. MMSI: 366990590.

Date/timePositionNaut miles runAvg speedWind from/ knotsBaromVisibWave heightAir tempDewpointWater temp
2015-Aug-03 22:33N 40°38' W 074°03'4 2.0
2015-Aug-03 20:34N 40°41' W 074°01'5 5.1
2015-Aug-03 19:34N 40°46' W 074°01'0 0.0
2015-Aug-03 18:34N 40°46' W 074°01'0 0.0
2015-Aug-03 17:33N 40°46' W 074°01'0 0.0
2015-Aug-03 16:34N 40°46' W 074°01'0 0.0
2015-Aug-03 15:33N 40°46' W 074°01'0 0.0
2015-Aug-03 14:34N 40°46' W 074°01'0 0.0
2015-Aug-03 13:33N 40°46' W 074°01'7 6.8
2015-Aug-03 12:34N 40°40' W 074°02'3 3.5
2015-Aug-03 11:34N 40°36' W 074°03'1010.1
2015-Aug-03 10:33N 40°26' W 074°05'0 0.1
2015-Aug-03 09:33N 40°26' W 074°05'  
2015-Jul-31 22:33N 40°35' W 074°04'5 4.8
2015-Jul-31 21:33N 40°30' W 074°04'1211.9
2015-Jul-31 20:34N 40°42' W 074°00'2 1.6
2015-Jul-31 19:34N 40°41' W 074°02'5 2.4
2015-Jul-31 17:34N 40°36' W 074°03'10 9.9
2015-Jul-31 16:33N 40°46' W 074°00'0 0.0
2015-Jul-31 15:33N 40°46' W 074°00'0 0.0
2015-Jul-31 14:33N 40°46' W 074°00'1 0.7
2015-Jul-31 13:33N 40°46' W 074°01'7 7.0
2015-Jul-31 12:34N 40°39' W 074°02'2 2.3
2015-Jul-31 11:33N 40°37' W 074°03'1111.3
2015-Jul-31 10:34N 40°26' W 074°05'0 0.0
2015-Jul-31 09:33N 40°26' W 074°05'11 1.0
2015-Jul-30 22:34N 40°37' W 074°03'5 5.1
2015-Jul-30 21:33N 40°32' W 074°04'1110.5
2015-Jul-30 20:34N 40°42' W 074°00'4 3.8
2015-Jul-30 19:33N 40°46' W 074°00'1 0.7
2015-Jul-30 18:33N 40°46' W 074°01'0 0.0
2015-Jul-30 17:34N 40°46' W 074°01'0 0.0
2015-Jul-30 16:34N 40°46' W 074°01'0 0.0
2015-Jul-30 15:34N 40°46' W 074°01'1 0.7
2015-Jul-30 14:33N 40°46' W 074°00'1511.7
2015-Jul-30 13:17N 40°31' W 074°04'912.5
2015-Jul-30 12:34N 40°40' W 074°02'4 3.6
2015-Jul-30 11:33N 40°36' W 074°03'11 7.9
2015-Jul-30 10:13N 40°26' W 074°05'0 0.0
2015-Jul-30 09:30N 40°26' W 074°05'11 1.0
2015-Jul-29 22:34N 40°37' W 074°03'11 8.5
2015-Jul-29 21:17N 40°26' W 074°05'1621.6
2015-Jul-29 20:34N 40°41' W 074°01'5 5.0
2015-Jul-29 19:33N 40°46' W 074°01'0 0.0
2015-Jul-29 18:33N 40°46' W 074°01'0 0.0
2015-Jul-29 17:33N 40°46' W 074°01'0 0.0
2015-Jul-29 16:33N 40°46' W 074°01'0 0.0
2015-Jul-29 15:33N 40°46' W 074°01'0 0.0
2015-Jul-29 14:33N 40°46' W 074°01'1 0.7
2015-Jul-29 13:33N 40°46' W 074°00'7 7.4
2015-Jul-29 12:33N 40°38' W 074°02'2 1.8
2015-Jul-29 11:34N 40°37' W 074°03'1110.6
2015-Jul-29 10:34N 40°26' W 074°05'0 0.1
2015-Jul-29 09:33N 40°26' W 074°05'11 1.0
2015-Jul-28 22:33N 40°37' W 074°03'4 2.2
2015-Jul-28 20:34N 40°41' W 074°01'5 4.9
2015-Jul-28 19:33N 40°46' W 074°01'0 0.0
2015-Jul-28 18:33N 40°46' W 074°01'0 0.0
2015-Jul-28 17:33N 40°46' W 074°01'0 0.0
2015-Jul-28 16:33N 40°46' W 074°01'0 0.0
2015-Jul-28 15:33N 40°46' W 074°01'0 0.0
2015-Jul-28 14:33N 40°46' W 074°01'0 0.0
2015-Jul-28 13:33N 40°46' W 074°01'7 7.3
2015-Jul-28 12:34N 40°39' W 074°02'3 3.4
2015-Jul-28 11:34N 40°36' W 074°03'10 9.7
2015-Jul-28 10:33N 40°26' W 074°05'0 0.0
2015-Jul-28 09:31N 40°26' W 074°05'0 0.0
2015-Jul-27 23:06N 40°26' W 074°05'1019.6
2015-Jul-27 22:34N 40°36' W 074°03'6 5.9
2015-Jul-27 21:30N 40°30' W 074°04'1212.8
2015-Jul-27 20:34N 40°42' W 074°00'4 4.3
2015-Jul-27 19:33N 40°46' W 074°01'0 0.0
2015-Jul-27 18:33N 40°46' W 074°01'0 0.0
2015-Jul-27 17:33N 40°46' W 074°01'0 0.0
2015-Jul-27 16:33N 40°46' W 074°01'0 0.0
2015-Jul-27 15:33N 40°46' W 074°01'0 0.0
2015-Jul-27 14:33N 40°46' W 074°01'0 0.0
2015-Jul-27 13:33N 40°46' W 074°01'9 8.6
2015-Jul-27 12:33N 40°38' W 074°03'1 0.9
2015-Jul-27 11:33N 40°37' W 074°03'  
Track history (hours):
 
Tides and Currents Weather Stations Pressure Air Temp Water Temp Dewpoint Dewpoint Depression Visibility Wind Speed Wind Dir Waves Ship Positions

Finest

Owner: NEW YORK FAST FERRY SERVICES INC, MAMARONECK, NY. More information available from US FCC via Universal Licensing System and Coast Guard Vessel Documentation Center.

Last reported at 2015-Aug-03 22:33 UTC. Time now 2015-Aug-04 09:40 UTC.
Position N 40°38' W 074°03'.

Length 38 m.

Type: High speed craft. MMSI: 366990590.

Date/timePositionNaut miles runAvg speedWind from/ knotsBaromVisibWave heightAir tempDewpointWater temp
2015-Aug-03 22:33N 40°38' W 074°03'4 2.0
2015-Aug-03 20:34N 40°41' W 074°01'5 5.1
2015-Aug-03 19:34N 40°46' W 074°01'0 0.0
2015-Aug-03 18:34N 40°46' W 074°01'0 0.0
2015-Aug-03 17:33N 40°46' W 074°01'0 0.0
2015-Aug-03 16:34N 40°46' W 074°01'0 0.0
2015-Aug-03 15:33N 40°46' W 074°01'0 0.0
2015-Aug-03 14:34N 40°46' W 074°01'0 0.0
2015-Aug-03 13:33N 40°46' W 074°01'7 6.8
2015-Aug-03 12:34N 40°40' W 074°02'3 3.5
2015-Aug-03 11:34N 40°36' W 074°03'1010.1
2015-Aug-03 10:33N 40°26' W 074°05'0 0.1
2015-Aug-03 09:33N 40°26' W 074°05'  
2015-Jul-31 22:33N 40°35' W 074°04'5 4.8
2015-Jul-31 21:33N 40°30' W 074°04'1211.9
2015-Jul-31 20:34N 40°42' W 074°00'2 1.6
2015-Jul-31 19:34N 40°41' W 074°02'5 2.4
2015-Jul-31 17:34N 40°36' W 074°03'10 9.9
2015-Jul-31 16:33N 40°46' W 074°00'0 0.0
2015-Jul-31 15:33N 40°46' W 074°00'0 0.0
2015-Jul-31 14:33N 40°46' W 074°00'1 0.7
2015-Jul-31 13:33N 40°46' W 074°01'7 7.0
2015-Jul-31 12:34N 40°39' W 074°02'2 2.3
2015-Jul-31 11:33N 40°37' W 074°03'1111.3
2015-Jul-31 10:34N 40°26' W 074°05'0 0.0
2015-Jul-31 09:33N 40°26' W 074°05'11 1.0
2015-Jul-30 22:34N 40°37' W 074°03'5 5.1
2015-Jul-30 21:33N 40°32' W 074°04'1110.5
2015-Jul-30 20:34N 40°42' W 074°00'4 3.8
2015-Jul-30 19:33N 40°46' W 074°00'1 0.7
2015-Jul-30 18:33N 40°46' W 074°01'0 0.0
2015-Jul-30 17:34N 40°46' W 074°01'0 0.0
2015-Jul-30 16:34N 40°46' W 074°01'0 0.0
2015-Jul-30 15:34N 40°46' W 074°01'1 0.7
2015-Jul-30 14:33N 40°46' W 074°00'1511.7
2015-Jul-30 13:17N 40°31' W 074°04'912.5
2015-Jul-30 12:34N 40°40' W 074°02'4 3.6
2015-Jul-30 11:33N 40°36' W 074°03'11 7.9
2015-Jul-30 10:13N 40°26' W 074°05'0 0.0
2015-Jul-30 09:30N 40°26' W 074°05'11 1.0
2015-Jul-29 22:34N 40°37' W 074°03'11 8.5
2015-Jul-29 21:17N 40°26' W 074°05'1621.6
2015-Jul-29 20:34N 40°41' W 074°01'5 5.0
2015-Jul-29 19:33N 40°46' W 074°01'0 0.0
2015-Jul-29 18:33N 40°46' W 074°01'0 0.0
2015-Jul-29 17:33N 40°46' W 074°01'0 0.0
2015-Jul-29 16:33N 40°46' W 074°01'0 0.0
2015-Jul-29 15:33N 40°46' W 074°01'0 0.0
2015-Jul-29 14:33N 40°46' W 074°01'1 0.7
2015-Jul-29 13:33N 40°46' W 074°00'7 7.4
2015-Jul-29 12:33N 40°38' W 074°02'2 1.8
2015-Jul-29 11:34N 40°37' W 074°03'1110.6
2015-Jul-29 10:34N 40°26' W 074°05'0 0.1
2015-Jul-29 09:33N 40°26' W 074°05'11 1.0
2015-Jul-28 22:33N 40°37' W 074°03'4 2.2
2015-Jul-28 20:34N 40°41' W 074°01'5 4.9
2015-Jul-28 19:33N 40°46' W 074°01'0 0.0
2015-Jul-28 18:33N 40°46' W 074°01'0 0.0
2015-Jul-28 17:33N 40°46' W 074°01'0 0.0
2015-Jul-28 16:33N 40°46' W 074°01'0 0.0
2015-Jul-28 15:33N 40°46' W 074°01'0 0.0
2015-Jul-28 14:33N 40°46' W 074°01'0 0.0
2015-Jul-28 13:33N 40°46' W 074°01'7 7.3
2015-Jul-28 12:34N 40°39' W 074°02'3 3.4
2015-Jul-28 11:34N 40°36' W 074°03'10 9.7
2015-Jul-28 10:33N 40°26' W 074°05'0 0.0
2015-Jul-28 09:31N 40°26' W 074°05'0 0.0
2015-Jul-27 23:06N 40°26' W 074°05'1019.6
2015-Jul-27 22:34N 40°36' W 074°03'6 5.9
2015-Jul-27 21:30N 40°30' W 074°04'1212.8
2015-Jul-27 20:34N 40°42' W 074°00'4 4.3
2015-Jul-27 19:33N 40°46' W 074°01'0 0.0
2015-Jul-27 18:33N 40°46' W 074°01'0 0.0
2015-Jul-27 17:33N 40°46' W 074°01'0 0.0
2015-Jul-27 16:33N 40°46' W 074°01'0 0.0
2015-Jul-27 15:33N 40°46' W 074°01'0 0.0
2015-Jul-27 14:33N 40°46' W 074°01'0 0.0
2015-Jul-27 13:33N 40°46' W 074°01'9 8.6
2015-Jul-27 12:33N 40°38' W 074°03'1 0.9
2015-Jul-27 11:33N 40°37' W 074°03'  

Dump ship's entire track history